KGSP/GSP METAR and TAF weather

Enter ICAO airport designator
Station Type Date Time Source
KGSP METAR 2019/12/08 13:53 UTC NOAA

KGSP 081353Z 06010KT 10SM OVC060 04/M02 A3045 RMK AO2 SLP311 T00441022


Station Type Date Time Source
KGSP Decoded METAR 2019/12/08 13:53 UTC NOAA

GREER GREENVILLE SPARTBURG, SC, United States (KGSP) 34-53N 82-13W 286M
Dec 08, 2019 - 08:53 AM EST / 2019.12.08 1353 UTC
Wind: from the ENE (060 degrees) at 12 MPH (10 KT):0
Visibility: 10 mile(s):0
Sky conditions: overcast
Temperature: 39.9 F (4.4 C)
Dew Point: 28.0 F (-2.2 C)
Relative Humidity: 62%
Pressure (altimeter): 30.45 in. Hg (1031 hPa)
ob: KGSP 081353Z 06010KT 10SM OVC060 04/M02 A3045 RMK AO2 SLP311 T00441022
cycle: 14

Station Type Date Time Source
KGSP TAF 2019/12/08 12:39 UTC NOAA

TAF KGSP 081136Z 0812/0912 05008KT P6SM BKN060
FM090000 04004KT P6SM BKN040
FM090400 04006KT P6SM OVC030
FM090900 03005KT P6SM OVC015 PROB30 0909/0912 4SM -RA OVC008

Example: see airport list